sensor_id;sensor_type;location;lat;lon;timestamp;P1;durP1;ratioP1;P2;durP2;ratioP2
68247;SDS011;55064;49.636;12.164;2022-09-12T00:03:32;16.40;;;6.10;;
68247;SDS011;55064;49.636;12.164;2022-09-12T00:06:06;13.95;;;6.38;;
68247;SDS011;55064;49.636;12.164;2022-09-12T00:08:32;15.87;;;6.97;;
68247;SDS011;55064;49.636;12.164;2022-09-12T00:11:02;23.13;;;7.43;;
68247;SDS011;55064;49.636;12.164;2022-09-12T00:13:31;47.80;;;7.53;;
68247;SDS011;55064;49.636;12.164;2022-09-12T00:15:56;38.28;;;7.82;;
68247;SDS011;55064;49.636;12.164;2022-09-12T00:18:22;36.47;;;7.40;;
68247;SDS011;55064;49.636;12.164;2022-09-12T00:20:49;29.52;;;6.93;;
68247;SDS011;55064;49.636;12.164;2022-09-12T00:23:19;15.57;;;6.67;;
68247;SDS011;55064;49.636;12.164;2022-09-12T00:25:47;14.35;;;6.43;;
68247;SDS011;55064;49.636;12.164;2022-09-12T00:28:14;33.55;;;7.68;;
68247;SDS011;55064;49.636;12.164;2022-09-12T00:30:41;20.30;;;6.90;;
68247;SDS011;55064;49.636;12.164;2022-09-12T00:33:09;28.50;;;7.18;;
68247;SDS011;55064;49.636;12.164;2022-09-12T00:35:48;15.70;;;6.73;;
68247;SDS011;55064;49.636;12.164;2022-09-12T00:38:19;31.42;;;6.10;;
68247;SDS011;55064;49.636;12.164;2022-09-12T00:40:45;27.55;;;6.60;;
68247;SDS011;55064;49.636;12.164;2022-09-12T00:45:53;58.47;;;7.32;;
68247;SDS011;55064;49.636;12.164;2022-09-12T00:48:21;29.17;;;6.53;;
68247;SDS011;55064;49.636;12.164;2022-09-12T00:50:57;37.25;;;6.40;;
68247;SDS011;55064;49.636;12.164;2022-09-12T00:53:23;43.08;;;6.97;;
68247;SDS011;55064;49.636;12.164;2022-09-12T00:55:51;33.38;;;7.30;;
68247;SDS011;55064;49.636;12.164;2022-09-12T00:58:22;35.97;;;7.28;;
68247;SDS011;55064;49.636;12.164;2022-09-12T01:00:52;27.30;;;6.67;;
68247;SDS011;55064;49.636;12.164;2022-09-12T01:03:19;39.80;;;7.38;;
68247;SDS011;55064;49.636;12.164;2022-09-12T01:05:52;52.63;;;7.40;;
68247;SDS011;55064;49.636;12.164;2022-09-12T01:08:37;23.77;;;6.97;;
68247;SDS011;55064;49.636;12.164;2022-09-12T01:11:05;26.92;;;6.85;;
68247;SDS011;55064;49.636;12.164;2022-09-12T01:13:35;25.65;;;6.78;;
68247;SDS011;55064;49.636;12.164;2022-09-12T01:16:04;21.00;;;6.60;;
68247;SDS011;55064;49.636;12.164;2022-09-12T01:18:39;26.33;;;6.27;;
68247;SDS011;55064;49.636;12.164;2022-09-12T01:24:59;17.67;;;5.55;;
68247;SDS011;55064;49.636;12.164;2022-09-12T01:38:14;30.25;;;5.43;;
68247;SDS011;55064;49.636;12.164;2022-09-12T01:46:30;20.07;;;5.60;;
68247;SDS011;55064;49.636;12.164;2022-09-12T01:49:01;20.58;;;6.43;;
68247;SDS011;55064;49.636;12.164;2022-09-12T01:51:32;17.30;;;6.38;;
68247;SDS011;55064;49.636;12.164;2022-09-12T01:54:09;12.15;;;6.05;;
68247;SDS011;55064;49.636;12.164;2022-09-12T01:56:48;25.48;;;5.78;;
68247;SDS011;55064;49.636;12.164;2022-09-12T01:59:21;19.40;;;5.40;;
68247;SDS011;55064;49.636;12.164;2022-09-12T02:02:10;19.90;;;6.00;;
68247;SDS011;55064;49.636;12.164;2022-09-12T02:04:53;25.15;;;6.18;;
68247;SDS011;55064;49.636;12.164;2022-09-12T02:07:26;21.58;;;5.80;;
68247;SDS011;55064;49.636;12.164;2022-09-12T02:12:41;27.47;;;5.03;;
68247;SDS011;55064;49.636;12.164;2022-09-12T02:15:16;37.90;;;5.45;;
68247;SDS011;55064;49.636;12.164;2022-09-12T02:17:45;42.78;;;5.57;;
68247;SDS011;55064;49.636;12.164;2022-09-12T02:20:26;30.00;;;5.88;;
68247;SDS011;55064;49.636;12.164;2022-09-12T02:22:53;41.42;;;6.03;;
68247;SDS011;55064;49.636;12.164;2022-09-12T02:25:23;14.70;;;4.57;;
68247;SDS011;55064;49.636;12.164;2022-09-12T02:27:59;29.35;;;5.82;;
68247;SDS011;55064;49.636;12.164;2022-09-12T02:30:33;26.60;;;6.10;;
68247;SDS011;55064;49.636;12.164;2022-09-12T02:33:18;16.42;;;6.00;;
68247;SDS011;55064;49.636;12.164;2022-09-12T02:35:47;18.15;;;5.82;;
68247;SDS011;55064;49.636;12.164;2022-09-12T02:41:07;43.35;;;7.43;;
68247;SDS011;55064;49.636;12.164;2022-09-12T02:43:33;34.83;;;6.20;;
68247;SDS011;55064;49.636;12.164;2022-09-12T02:46:00;42.10;;;6.53;;
68247;SDS011;55064;49.636;12.164;2022-09-12T02:48:27;24.67;;;5.80;;
68247;SDS011;55064;49.636;12.164;2022-09-12T02:50:58;37.70;;;6.05;;
68247;SDS011;55064;49.636;12.164;2022-09-12T02:53:24;43.30;;;7.00;;
68247;SDS011;55064;49.636;12.164;2022-09-12T02:55:52;34.70;;;6.70;;
68247;SDS011;55064;49.636;12.164;2022-09-12T02:58:21;17.20;;;6.40;;
68247;SDS011;55064;49.636;12.164;2022-09-12T03:00:53;15.27;;;6.22;;
68247;SDS011;55064;49.636;12.164;2022-09-12T03:06:32;14.33;;;5.63;;
68247;SDS011;55064;49.636;12.164;2022-09-12T03:09:11;62.75;;;7.38;;
68247;SDS011;55064;49.636;12.164;2022-09-12T03:17:45;69.60;;;7.93;;
68247;SDS011;55064;49.636;12.164;2022-09-12T03:23:18;53.72;;;5.70;;
68247;SDS011;55064;49.636;12.164;2022-09-12T03:26:09;64.72;;;5.60;;
68247;SDS011;55064;49.636;12.164;2022-09-12T03:28:39;19.35;;;5.00;;
68247;SDS011;55064;49.636;12.164;2022-09-12T03:31:12;50.38;;;5.22;;
68247;SDS011;55064;49.636;12.164;2022-09-12T03:33:41;54.00;;;5.00;;
68247;SDS011;55064;49.636;12.164;2022-09-12T03:36:17;31.23;;;4.20;;
68247;SDS011;55064;49.636;12.164;2022-09-12T03:38:46;45.83;;;4.93;;
68247;SDS011;55064;49.636;12.164;2022-09-12T03:41:12;34.90;;;4.30;;
68247;SDS011;55064;49.636;12.164;2022-09-12T03:43:37;50.33;;;4.77;;
68247;SDS011;55064;49.636;12.164;2022-09-12T03:46:07;41.00;;;5.10;;
68247;SDS011;55064;49.636;12.164;2022-09-12T03:48:32;61.83;;;5.82;;
68247;SDS011;55064;49.636;12.164;2022-09-12T03:51:02;43.83;;;4.50;;
68247;SDS011;55064;49.636;12.164;2022-09-12T03:53:32;47.55;;;4.70;;
68247;SDS011;55064;49.636;12.164;2022-09-12T03:56:04;32.00;;;4.50;;
68247;SDS011;55064;49.636;12.164;2022-09-12T03:58:31;15.43;;;4.70;;
68247;SDS011;55064;49.636;12.164;2022-09-12T04:01:00;82.43;;;6.68;;
68247;SDS011;55064;49.636;12.164;2022-09-12T04:03:25;56.83;;;6.03;;
68247;SDS011;55064;49.636;12.164;2022-09-12T04:05:56;64.57;;;6.22;;
68247;SDS011;55064;49.636;12.164;2022-09-12T04:08:23;47.05;;;5.80;;
68247;SDS011;55064;49.636;12.164;2022-09-12T04:10:50;54.50;;;5.30;;
68247;SDS011;55064;49.636;12.164;2022-09-12T04:13:15;47.13;;;5.97;;
68247;SDS011;55064;49.636;12.164;2022-09-12T04:15:49;54.40;;;6.32;;
68247;SDS011;55064;49.636;12.164;2022-09-12T04:18:24;44.67;;;5.65;;
68247;SDS011;55064;49.636;12.164;2022-09-12T04:20:50;39.33;;;5.67;;
68247;SDS011;55064;49.636;12.164;2022-09-12T04:23:15;86.70;;;6.85;;
68247;SDS011;55064;49.636;12.164;2022-09-12T04:25:56;15.13;;;4.20;;
68247;SDS011;55064;49.636;12.164;2022-09-12T04:28:25;17.77;;;4.80;;
68247;SDS011;55064;49.636;12.164;2022-09-12T04:30:51;18.67;;;4.57;;
68247;SDS011;55064;49.636;12.164;2022-09-12T04:33:16;22.83;;;4.30;;
68247;SDS011;55064;49.636;12.164;2022-09-12T04:35:42;50.08;;;6.10;;
68247;SDS011;55064;49.636;12.164;2022-09-12T04:38:10;33.45;;;4.75;;
68247;SDS011;55064;49.636;12.164;2022-09-12T04:40:36;30.17;;;4.73;;
68247;SDS011;55064;49.636;12.164;2022-09-12T04:43:02;17.20;;;4.53;;
68247;SDS011;55064;49.636;12.164;2022-09-12T04:45:28;27.45;;;4.72;;
68247;SDS011;55064;49.636;12.164;2022-09-12T04:47:53;10.67;;;4.10;;
68247;SDS011;55064;49.636;12.164;2022-09-12T04:50:18;25.13;;;4.33;;
68247;SDS011;55064;49.636;12.164;2022-09-12T04:52:54;26.45;;;4.65;;
68247;SDS011;55064;49.636;12.164;2022-09-12T04:55:20;20.02;;;4.10;;
68247;SDS011;55064;49.636;12.164;2022-09-12T04:57:46;20.37;;;4.30;;
68247;SDS011;55064;49.636;12.164;2022-09-12T05:00:12;11.63;;;4.30;;
68247;SDS011;55064;49.636;12.164;2022-09-12T05:02:41;21.05;;;4.10;;
68247;SDS011;55064;49.636;12.164;2022-09-12T05:05:07;13.27;;;3.70;;
68247;SDS011;55064;49.636;12.164;2022-09-12T05:07:33;10.73;;;3.60;;
68247;SDS011;55064;49.636;12.164;2022-09-12T05:09:59;24.23;;;4.15;;
68247;SDS011;55064;49.636;12.164;2022-09-12T05:12:25;11.20;;;4.20;;
68247;SDS011;55064;49.636;12.164;2022-09-12T05:14:57;22.13;;;4.10;;
68247;SDS011;55064;49.636;12.164;2022-09-12T05:17:22;23.20;;;4.10;;
68247;SDS011;55064;49.636;12.164;2022-09-12T05:19:47;28.00;;;4.70;;
68247;SDS011;55064;49.636;12.164;2022-09-12T05:22:13;13.85;;;4.47;;
68247;SDS011;55064;49.636;12.164;2022-09-12T05:24:38;31.00;;;4.90;;
68247;SDS011;55064;49.636;12.164;2022-09-12T05:27:07;19.92;;;4.57;;
68247;SDS011;55064;49.636;12.164;2022-09-12T05:29:33;18.43;;;4.63;;
68247;SDS011;55064;49.636;12.164;2022-09-12T05:31:59;50.63;;;5.03;;
68247;SDS011;55064;49.636;12.164;2022-09-12T05:34:28;38.88;;;4.53;;
68247;SDS011;55064;49.636;12.164;2022-09-12T05:36:55;17.15;;;4.18;;
68247;SDS011;55064;49.636;12.164;2022-09-12T05:39:24;54.45;;;4.78;;
68247;SDS011;55064;49.636;12.164;2022-09-12T05:41:51;16.30;;;3.27;;
68247;SDS011;55064;49.636;12.164;2022-09-12T05:44:16;8.63;;;3.60;;
68247;SDS011;55064;49.636;12.164;2022-09-12T05:46:44;24.75;;;4.10;;
68247;SDS011;55064;49.636;12.164;2022-09-12T05:49:12;26.75;;;5.28;;
68247;SDS011;55064;49.636;12.164;2022-09-12T05:51:41;16.58;;;4.32;;
68247;SDS011;55064;49.636;12.164;2022-09-12T05:54:10;17.02;;;4.97;;
68247;SDS011;55064;49.636;12.164;2022-09-12T05:56:41;25.53;;;4.60;;
68247;SDS011;55064;49.636;12.164;2022-09-12T05:59:11;12.40;;;3.95;;
68247;SDS011;55064;49.636;12.164;2022-09-12T06:01:39;20.33;;;4.40;;
68247;SDS011;55064;49.636;12.164;2022-09-12T06:04:06;33.47;;;4.57;;
68247;SDS011;55064;49.636;12.164;2022-09-12T06:06:34;36.22;;;4.95;;
68247;SDS011;55064;49.636;12.164;2022-09-12T06:09:03;47.73;;;4.40;;
68247;SDS011;55064;49.636;12.164;2022-09-12T06:11:30;46.80;;;5.88;;
68247;SDS011;55064;49.636;12.164;2022-09-12T06:14:01;16.05;;;4.00;;
68247;SDS011;55064;49.636;12.164;2022-09-12T06:16:30;20.67;;;4.35;;
68247;SDS011;55064;49.636;12.164;2022-09-12T06:18:58;17.83;;;4.43;;
68247;SDS011;55064;49.636;12.164;2022-09-12T06:21:28;27.97;;;4.70;;
68247;SDS011;55064;49.636;12.164;2022-09-12T06:24:04;25.73;;;4.70;;
68247;SDS011;55064;49.636;12.164;2022-09-12T06:26:31;14.32;;;4.53;;
68247;SDS011;55064;49.636;12.164;2022-09-12T06:28:59;12.70;;;4.80;;
68247;SDS011;55064;49.636;12.164;2022-09-12T06:31:26;18.92;;;4.68;;
68247;SDS011;55064;49.636;12.164;2022-09-12T06:33:55;21.17;;;4.70;;
68247;SDS011;55064;49.636;12.164;2022-09-12T06:36:24;14.57;;;4.88;;
68247;SDS011;55064;49.636;12.164;2022-09-12T06:38:55;10.65;;;4.70;;
68247;SDS011;55064;49.636;12.164;2022-09-12T06:41:25;18.30;;;5.27;;
68247;SDS011;55064;49.636;12.164;2022-09-12T06:43:55;14.05;;;5.47;;
68247;SDS011;55064;49.636;12.164;2022-09-12T06:46:21;15.60;;;5.10;;
68247;SDS011;55064;49.636;12.164;2022-09-12T06:48:49;15.18;;;5.13;;
68247;SDS011;55064;49.636;12.164;2022-09-12T06:51:19;13.38;;;5.22;;
68247;SDS011;55064;49.636;12.164;2022-09-12T06:53:50;11.17;;;4.63;;
68247;SDS011;55064;49.636;12.164;2022-09-12T06:56:19;9.60;;;4.75;;
68247;SDS011;55064;49.636;12.164;2022-09-12T06:58:49;15.60;;;5.28;;
68247;SDS011;55064;49.636;12.164;2022-09-12T07:03:47;12.48;;;5.13;;
68247;SDS011;55064;49.636;12.164;2022-09-12T07:06:18;18.90;;;6.30;;
68247;SDS011;55064;49.636;12.164;2022-09-12T07:08:45;18.45;;;6.32;;
68247;SDS011;55064;49.636;12.164;2022-09-12T07:13:36;14.00;;;5.53;;
68247;SDS011;55064;49.636;12.164;2022-09-12T07:16:03;14.48;;;5.32;;
68247;SDS011;55064;49.636;12.164;2022-09-12T07:18:32;19.27;;;5.43;;
68247;SDS011;55064;49.636;12.164;2022-09-12T07:20:59;10.73;;;5.47;;
68247;SDS011;55064;49.636;12.164;2022-09-12T07:23:25;11.68;;;5.40;;
68247;SDS011;55064;49.636;12.164;2022-09-12T07:25:54;12.80;;;5.68;;
68247;SDS011;55064;49.636;12.164;2022-09-12T07:28:26;14.75;;;5.03;;
68247;SDS011;55064;49.636;12.164;2022-09-12T07:30:55;10.05;;;5.25;;
68247;SDS011;55064;49.636;12.164;2022-09-12T07:33:21;10.13;;;5.43;;
68247;SDS011;55064;49.636;12.164;2022-09-12T07:35:48;13.80;;;5.38;;
68247;SDS011;55064;49.636;12.164;2022-09-12T07:38:15;10.87;;;4.80;;
68247;SDS011;55064;49.636;12.164;2022-09-12T07:40:41;15.00;;;5.13;;
68247;SDS011;55064;49.636;12.164;2022-09-12T07:43:07;13.20;;;5.32;;
68247;SDS011;55064;49.636;12.164;2022-09-12T07:45:35;12.33;;;5.50;;
68247;SDS011;55064;49.636;12.164;2022-09-12T07:48:00;11.17;;;5.73;;
68247;SDS011;55064;49.636;12.164;2022-09-12T07:50:26;13.40;;;6.40;;
68247;SDS011;55064;49.636;12.164;2022-09-12T07:52:56;11.75;;;6.50;;
68247;SDS011;55064;49.636;12.164;2022-09-12T07:55:22;15.15;;;7.13;;
68247;SDS011;55064;49.636;12.164;2022-09-12T07:57:48;13.97;;;6.73;;
68247;SDS011;55064;49.636;12.164;2022-09-12T08:00:15;13.15;;;6.57;;
68247;SDS011;55064;49.636;12.164;2022-09-12T08:02:40;12.88;;;6.40;;
68247;SDS011;55064;49.636;12.164;2022-09-12T08:05:06;15.17;;;7.60;;
68247;SDS011;55064;49.636;12.164;2022-09-12T08:07:34;13.27;;;6.90;;
68247;SDS011;55064;49.636;12.164;2022-09-12T08:10:02;12.90;;;6.93;;
68247;SDS011;55064;49.636;12.164;2022-09-12T08:12:30;14.25;;;7.70;;
68247;SDS011;55064;49.636;12.164;2022-09-12T08:14:58;15.82;;;7.72;;
68247;SDS011;55064;49.636;12.164;2022-09-12T08:17:24;15.20;;;7.75;;
68247;SDS011;55064;49.636;12.164;2022-09-12T08:19:49;14.23;;;7.53;;
68247;SDS011;55064;49.636;12.164;2022-09-12T08:22:15;13.57;;;7.53;;
68247;SDS011;55064;49.636;12.164;2022-09-12T08:24:46;15.50;;;7.78;;
68247;SDS011;55064;49.636;12.164;2022-09-12T08:27:14;12.85;;;7.22;;
68247;SDS011;55064;49.636;12.164;2022-09-12T08:29:45;14.63;;;7.60;;
68247;SDS011;55064;49.636;12.164;2022-09-12T08:32:10;14.30;;;7.57;;
68247;SDS011;55064;49.636;12.164;2022-09-12T08:34:35;13.50;;;6.93;;
68247;SDS011;55064;49.636;12.164;2022-09-12T08:37:03;12.77;;;6.82;;
68247;SDS011;55064;49.636;12.164;2022-09-12T08:39:30;14.00;;;6.72;;
68247;SDS011;55064;49.636;12.164;2022-09-12T08:42:00;13.25;;;6.80;;
68247;SDS011;55064;49.636;12.164;2022-09-12T08:47:29;13.53;;;7.37;;
68247;SDS011;55064;49.636;12.164;2022-09-12T08:58:16;14.77;;;7.97;;
68247;SDS011;55064;49.636;12.164;2022-09-12T09:06:15;13.10;;;7.85;;
68247;SDS011;55064;49.636;12.164;2022-09-12T09:08:55;16.83;;;8.70;;
68247;SDS011;55064;49.636;12.164;2022-09-12T09:17:13;14.82;;;8.73;;
68247;SDS011;55064;49.636;12.164;2022-09-12T09:19:58;15.65;;;9.10;;
68247;SDS011;55064;49.636;12.164;2022-09-12T09:22:36;17.20;;;8.93;;
68247;SDS011;55064;49.636;12.164;2022-09-12T09:25:21;15.88;;;8.77;;
68247;SDS011;55064;49.636;12.164;2022-09-12T09:27:55;12.90;;;8.00;;
68247;SDS011;55064;49.636;12.164;2022-09-12T09:30:27;13.63;;;7.93;;
68247;SDS011;55064;49.636;12.164;2022-09-12T09:32:54;12.95;;;7.40;;
68247;SDS011;55064;49.636;12.164;2022-09-12T09:38:22;12.75;;;7.60;;
68247;SDS011;55064;49.636;12.164;2022-09-12T09:44:13;13.10;;;7.93;;
68247;SDS011;55064;49.636;12.164;2022-09-12T09:46:41;12.68;;;7.47;;
68247;SDS011;55064;49.636;12.164;2022-09-12T09:49:10;14.90;;;8.23;;
68247;SDS011;55064;49.636;12.164;2022-09-12T09:51:40;14.02;;;7.95;;
68247;SDS011;55064;49.636;12.164;2022-09-12T09:54:20;14.23;;;8.00;;
68247;SDS011;55064;49.636;12.164;2022-09-12T09:56:54;13.60;;;8.32;;
68247;SDS011;55064;49.636;12.164;2022-09-12T10:01:55;13.80;;;8.05;;
68247;SDS011;55064;49.636;12.164;2022-09-12T10:04:34;14.00;;;8.38;;
68247;SDS011;55064;49.636;12.164;2022-09-12T10:07:03;13.67;;;8.50;;
68247;SDS011;55064;49.636;12.164;2022-09-12T10:09:31;15.95;;;8.70;;
68247;SDS011;55064;49.636;12.164;2022-09-12T10:12:18;12.90;;;8.10;;
68247;SDS011;55064;49.636;12.164;2022-09-12T10:14:59;12.98;;;8.10;;
68247;SDS011;55064;49.636;12.164;2022-09-12T10:17:45;11.07;;;6.75;;
68247;SDS011;55064;49.636;12.164;2022-09-12T10:23:03;11.85;;;5.22;;
68247;SDS011;55064;49.636;12.164;2022-09-12T10:25:56;11.10;;;5.43;;
68247;SDS011;55064;49.636;12.164;2022-09-12T10:28:38;10.98;;;5.15;;
68247;SDS011;55064;49.636;12.164;2022-09-12T10:31:07;7.25;;;4.20;;
68247;SDS011;55064;49.636;12.164;2022-09-12T10:33:41;7.40;;;3.93;;
68247;SDS011;55064;49.636;12.164;2022-09-12T10:36:19;8.13;;;4.05;;
68247;SDS011;55064;49.636;12.164;2022-09-12T10:38:55;7.93;;;4.13;;
68247;SDS011;55064;49.636;12.164;2022-09-12T10:41:25;7.28;;;3.95;;
68247;SDS011;55064;49.636;12.164;2022-09-12T10:44:05;7.13;;;3.83;;
68247;SDS011;55064;49.636;12.164;2022-09-12T10:46:51;6.70;;;3.40;;
68247;SDS011;55064;49.636;12.164;2022-09-12T10:51:48;7.55;;;2.75;;
68247;SDS011;55064;49.636;12.164;2022-09-12T10:54:16;8.93;;;3.63;;
68247;SDS011;55064;49.636;12.164;2022-09-12T11:45:39;5.40;;;2.80;;
68247;SDS011;55064;49.636;12.164;2022-09-12T11:51:06;6.13;;;2.55;;
68247;SDS011;55064;49.636;12.164;2022-09-12T11:53:46;8.23;;;3.03;;
68247;SDS011;55064;49.636;12.164;2022-09-12T11:56:25;4.90;;;2.50;;
68247;SDS011;55064;49.636;12.164;2022-09-12T11:58:53;5.80;;;2.80;;
68247;SDS011;55064;49.636;12.164;2022-09-12T12:01:26;5.93;;;2.50;;
68247;SDS011;55064;49.636;12.164;2022-09-12T12:03:58;5.28;;;2.42;;
68247;SDS011;55064;49.636;12.164;2022-09-12T12:06:30;5.43;;;2.70;;
68247;SDS011;55064;49.636;12.164;2022-09-12T12:09:04;5.43;;;2.60;;
68247;SDS011;55064;49.636;12.164;2022-09-12T12:11:31;5.53;;;2.70;;
68247;SDS011;55064;49.636;12.164;2022-09-12T12:14:02;5.53;;;2.70;;
68247;SDS011;55064;49.636;12.164;2022-09-12T12:18:59;6.53;;;2.90;;
68247;SDS011;55064;49.636;12.164;2022-09-12T12:36:55;4.93;;;2.53;;
68247;SDS011;55064;49.636;12.164;2022-09-12T12:42:01;5.80;;;2.40;;
68247;SDS011;55064;49.636;12.164;2022-09-12T12:47:32;4.93;;;2.33;;
68247;SDS011;55064;49.636;12.164;2022-09-12T12:55:21;5.32;;;2.38;;
68247;SDS011;55064;49.636;12.164;2022-09-12T13:02:54;5.80;;;2.35;;
68247;SDS011;55064;49.636;12.164;2022-09-12T13:05:29;6.10;;;2.60;;
68247;SDS011;55064;49.636;12.164;2022-09-12T13:08:06;5.05;;;2.45;;
68247;SDS011;55064;49.636;12.164;2022-09-12T13:10:55;5.30;;;2.60;;
68247;SDS011;55064;49.636;12.164;2022-09-12T13:13:29;5.40;;;2.50;;
68247;SDS011;55064;49.636;12.164;2022-09-12T13:16:00;6.45;;;2.75;;
68247;SDS011;55064;49.636;12.164;2022-09-12T13:18:28;5.07;;;2.67;;
68247;SDS011;55064;49.636;12.164;2022-09-12T13:23:40;5.30;;;2.33;;
68247;SDS011;55064;49.636;12.164;2022-09-12T13:26:10;5.55;;;2.60;;
68247;SDS011;55064;49.636;12.164;2022-09-12T13:28:37;5.63;;;2.42;;
68247;SDS011;55064;49.636;12.164;2022-09-12T13:33:51;5.93;;;2.45;;
68247;SDS011;55064;49.636;12.164;2022-09-12T13:44:28;5.40;;;2.53;;
68247;SDS011;55064;49.636;12.164;2022-09-12T13:46:58;6.45;;;2.60;;
68247;SDS011;55064;49.636;12.164;2022-09-12T13:49:36;4.97;;;2.17;;
68247;SDS011;55064;49.636;12.164;2022-09-12T13:52:22;4.80;;;2.25;;
68247;SDS011;55064;49.636;12.164;2022-09-12T13:54:55;5.90;;;2.50;;
68247;SDS011;55064;49.636;12.164;2022-09-12T13:57:27;7.78;;;2.60;;
68247;SDS011;55064;49.636;12.164;2022-09-12T13:59:55;5.65;;;2.22;;
68247;SDS011;55064;49.636;12.164;2022-09-12T14:02:22;4.40;;;1.90;;
68247;SDS011;55064;49.636;12.164;2022-09-12T14:04:50;4.85;;;2.13;;
68247;SDS011;55064;49.636;12.164;2022-09-12T14:07:40;4.37;;;1.97;;
68247;SDS011;55064;49.636;12.164;2022-09-12T14:10:32;5.00;;;2.22;;
68247;SDS011;55064;49.636;12.164;2022-09-12T14:13:11;7.10;;;2.30;;
68247;SDS011;55064;49.636;12.164;2022-09-12T14:15:43;5.22;;;2.20;;
68247;SDS011;55064;49.636;12.164;2022-09-12T14:18:19;7.07;;;2.17;;
68247;SDS011;55064;49.636;12.164;2022-09-12T14:20:50;5.37;;;2.20;;
68247;SDS011;55064;49.636;12.164;2022-09-12T14:23:20;5.80;;;1.92;;
68247;SDS011;55064;49.636;12.164;2022-09-12T14:25:51;4.82;;;1.98;;
68247;SDS011;55064;49.636;12.164;2022-09-12T14:28:20;5.07;;;2.00;;
68247;SDS011;55064;49.636;12.164;2022-09-12T14:33:49;4.67;;;2.00;;
68247;SDS011;55064;49.636;12.164;2022-09-12T14:36:33;6.35;;;2.13;;
68247;SDS011;55064;49.636;12.164;2022-09-12T14:39:02;4.75;;;2.30;;
68247;SDS011;55064;49.636;12.164;2022-09-12T14:41:39;5.03;;;2.10;;
68247;SDS011;55064;49.636;12.164;2022-09-12T14:44:06;4.82;;;2.20;;
68247;SDS011;55064;49.636;12.164;2022-09-12T14:46:41;5.43;;;2.20;;
68247;SDS011;55064;49.636;12.164;2022-09-12T14:49:09;5.18;;;2.20;;
68247;SDS011;55064;49.636;12.164;2022-09-12T14:56:57;4.43;;;1.90;;
68247;SDS011;55064;49.636;12.164;2022-09-12T14:59:29;4.80;;;2.17;;
68247;SDS011;55064;49.636;12.164;2022-09-12T15:07:41;4.75;;;2.20;;
68247;SDS011;55064;49.636;12.164;2022-09-12T15:15:40;4.50;;;1.98;;
68247;SDS011;55064;49.636;12.164;2022-09-12T15:18:10;5.88;;;2.80;;
68247;SDS011;55064;49.636;12.164;2022-09-12T15:20:38;6.18;;;2.97;;
68247;SDS011;55064;49.636;12.164;2022-09-12T15:23:10;5.18;;;2.30;;
68247;SDS011;55064;49.636;12.164;2022-09-12T15:25:41;5.07;;;2.27;;
68247;SDS011;55064;49.636;12.164;2022-09-12T15:28:20;4.70;;;2.20;;
68247;SDS011;55064;49.636;12.164;2022-09-12T15:30:49;4.93;;;2.00;;
68247;SDS011;55064;49.636;12.164;2022-09-12T15:33:21;4.55;;;1.63;;
68247;SDS011;55064;49.636;12.164;2022-09-12T15:35:50;5.43;;;2.20;;
68247;SDS011;55064;49.636;12.164;2022-09-12T15:38:16;4.75;;;1.90;;
68247;SDS011;55064;49.636;12.164;2022-09-12T15:40:42;5.15;;;2.40;;
68247;SDS011;55064;49.636;12.164;2022-09-12T15:43:09;5.03;;;2.03;;
68247;SDS011;55064;49.636;12.164;2022-09-12T15:45:37;4.78;;;2.10;;
68247;SDS011;55064;49.636;12.164;2022-09-12T15:48:08;5.00;;;2.20;;
68247;SDS011;55064;49.636;12.164;2022-09-12T15:50:35;5.17;;;2.17;;
68247;SDS011;55064;49.636;12.164;2022-09-12T15:53:01;4.82;;;1.95;;
68247;SDS011;55064;49.636;12.164;2022-09-12T15:55:29;5.60;;;2.00;;
68247;SDS011;55064;49.636;12.164;2022-09-12T15:57:58;6.68;;;1.85;;
68247;SDS011;55064;49.636;12.164;2022-09-12T16:00:26;4.93;;;2.30;;
68247;SDS011;55064;49.636;12.164;2022-09-12T16:02:52;4.83;;;2.00;;
68247;SDS011;55064;49.636;12.164;2022-09-12T16:05:22;5.63;;;2.10;;
68247;SDS011;55064;49.636;12.164;2022-09-12T16:07:52;5.20;;;1.90;;
68247;SDS011;55064;49.636;12.164;2022-09-12T16:10:23;4.38;;;1.80;;
68247;SDS011;55064;49.636;12.164;2022-09-12T16:12:53;5.10;;;2.30;;
68247;SDS011;55064;49.636;12.164;2022-09-12T16:15:20;5.05;;;2.20;;
68247;SDS011;55064;49.636;12.164;2022-09-12T16:17:47;4.90;;;2.20;;
68247;SDS011;55064;49.636;12.164;2022-09-12T16:20:16;5.10;;;2.03;;
68247;SDS011;55064;49.636;12.164;2022-09-12T16:22:43;6.13;;;2.22;;
68247;SDS011;55064;49.636;12.164;2022-09-12T16:25:10;5.43;;;2.40;;
68247;SDS011;55064;49.636;12.164;2022-09-12T16:27:39;6.88;;;2.65;;
68247;SDS011;55064;49.636;12.164;2022-09-12T16:30:05;5.10;;;2.50;;
68247;SDS011;55064;49.636;12.164;2022-09-12T16:32:31;5.63;;;2.28;;
68247;SDS011;55064;49.636;12.164;2022-09-12T16:34:59;5.00;;;2.10;;
68247;SDS011;55064;49.636;12.164;2022-09-12T16:37:25;5.70;;;2.30;;
68247;SDS011;55064;49.636;12.164;2022-09-12T16:39:50;5.30;;;2.10;;
68247;SDS011;55064;49.636;12.164;2022-09-12T16:42:16;4.85;;;2.08;;
68247;SDS011;55064;49.636;12.164;2022-09-12T16:44:43;4.82;;;2.00;;
68247;SDS011;55064;49.636;12.164;2022-09-12T16:47:09;5.07;;;2.28;;
68247;SDS011;55064;49.636;12.164;2022-09-12T16:49:37;5.50;;;2.22;;
68247;SDS011;55064;49.636;12.164;2022-09-12T16:52:05;6.30;;;2.30;;
68247;SDS011;55064;49.636;12.164;2022-09-12T16:54:31;5.68;;;2.30;;
68247;SDS011;55064;49.636;12.164;2022-09-12T16:56:58;5.15;;;2.20;;
68247;SDS011;55064;49.636;12.164;2022-09-12T16:59:24;5.50;;;2.30;;
68247;SDS011;55064;49.636;12.164;2022-09-12T17:01:52;5.63;;;2.50;;
68247;SDS011;55064;49.636;12.164;2022-09-12T17:04:20;6.72;;;2.30;;
68247;SDS011;55064;49.636;12.164;2022-09-12T17:06:45;7.05;;;2.40;;
68247;SDS011;55064;49.636;12.164;2022-09-12T17:09:11;5.93;;;3.20;;
68247;SDS011;55064;49.636;12.164;2022-09-12T17:11:42;5.90;;;2.30;;
68247;SDS011;55064;49.636;12.164;2022-09-12T17:14:09;6.55;;;2.33;;
68247;SDS011;55064;49.636;12.164;2022-09-12T17:16:38;5.40;;;2.70;;
68247;SDS011;55064;49.636;12.164;2022-09-12T17:19:10;7.47;;;2.30;;
68247;SDS011;55064;49.636;12.164;2022-09-12T17:21:41;8.45;;;2.40;;
68247;SDS011;55064;49.636;12.164;2022-09-12T17:24:11;6.40;;;3.00;;
68247;SDS011;55064;49.636;12.164;2022-09-12T17:26:36;8.33;;;2.77;;
68247;SDS011;55064;49.636;12.164;2022-09-12T17:29:02;8.63;;;2.57;;
68247;SDS011;55064;49.636;12.164;2022-09-12T17:31:30;5.30;;;2.53;;
68247;SDS011;55064;49.636;12.164;2022-09-12T17:34:00;5.97;;;2.60;;
68247;SDS011;55064;49.636;12.164;2022-09-12T17:36:26;7.93;;;2.47;;
68247;SDS011;55064;49.636;12.164;2022-09-12T17:38:55;6.57;;;2.60;;
68247;SDS011;55064;49.636;12.164;2022-09-12T17:41:22;6.70;;;3.10;;
68247;SDS011;55064;49.636;12.164;2022-09-12T17:43:50;8.88;;;3.63;;
68247;SDS011;55064;49.636;12.164;2022-09-12T17:46:21;11.17;;;4.70;;
68247;SDS011;55064;49.636;12.164;2022-09-12T17:48:51;7.72;;;4.32;;
68247;SDS011;55064;49.636;12.164;2022-09-12T17:51:23;9.32;;;4.05;;
68247;SDS011;55064;49.636;12.164;2022-09-12T17:56:23;8.07;;;3.40;;
68247;SDS011;55064;49.636;12.164;2022-09-12T17:58:48;5.70;;;2.57;;
68247;SDS011;55064;49.636;12.164;2022-09-12T18:01:14;7.40;;;3.10;;
68247;SDS011;55064;49.636;12.164;2022-09-12T18:03:58;7.82;;;3.47;;
68247;SDS011;55064;49.636;12.164;2022-09-12T18:06:25;8.32;;;3.53;;
68247;SDS011;55064;49.636;12.164;2022-09-12T18:09:06;7.43;;;3.40;;